createdAt,value
2022-12-17T00:00:35.034Z,98.96
2022-12-17T00:03:20.404Z,98.52
2022-12-17T00:06:05.764Z,98.12
2022-12-17T00:08:51.441Z,98.71
2022-12-17T00:11:37.541Z,99.18
2022-12-17T00:14:23.295Z,99.27
2022-12-17T00:17:08.663Z,98.71
2022-12-17T00:19:56.308Z,98.41
2022-12-17T00:22:42.056Z,98.50
2022-12-17T00:25:27.788Z,97.95
2022-12-17T00:28:13.225Z,97.49
2022-12-17T00:30:58.509Z,98.13
2022-12-17T00:33:44.017Z,98.95
2022-12-17T00:36:29.188Z,99.02
2022-12-17T00:39:14.400Z,98.24
2022-12-17T00:41:59.759Z,96.86
2022-12-17T00:44:45.124Z,97.67
2022-12-17T00:47:30.449Z,98.17
2022-12-17T00:50:15.635Z,98.68
2022-12-17T00:53:00.934Z,99.04
2022-12-17T00:55:46.013Z,98.82
2022-12-17T00:58:31.438Z,98.87
2022-12-17T01:01:20.259Z,99.09
2022-12-17T01:04:05.670Z,98.76
2022-12-17T01:06:51.021Z,98.71
2022-12-17T01:09:36.856Z,97.82
2022-12-17T01:12:22.566Z,98.44
2022-12-17T01:15:07.874Z,98.66
2022-12-17T01:17:53.117Z,99.51
2022-12-17T01:20:42.197Z,98.87
2022-12-17T01:23:27.848Z,98.75
2022-12-17T01:26:15.049Z,98.82
2022-12-17T01:29:01.436Z,98.21
2022-12-17T01:31:47.418Z,98.64
2022-12-17T01:34:32.650Z,99.03
2022-12-17T01:37:17.775Z,98.97
2022-12-17T01:40:03.042Z,97.85
2022-12-17T01:43:05.926Z,98.82
2022-12-17T01:46:04.693Z,96.99
2022-12-17T01:48:59.903Z,96.79
2022-12-17T01:51:46.725Z,96.72
2022-12-17T01:54:33.201Z,96.54
2022-12-17T01:57:20.048Z,97.11
2022-12-17T02:00:21.506Z,97.71
2022-12-17T02:03:11.387Z,97.82
2022-12-17T02:06:35.887Z,97.18
2022-12-17T02:09:44.678Z,97.14
2022-12-17T02:12:44.321Z,96.70
2022-12-17T02:15:47.597Z,96.91
2022-12-17T02:18:41.036Z,97.13
2022-12-17T02:21:27.516Z,96.54
2022-12-17T02:24:47.866Z,96.61
2022-12-17T02:27:35.187Z,95.99
2022-12-17T02:30:26.044Z,97.16
2022-12-17T02:33:12.242Z,98.84
2022-12-17T02:36:25.627Z,98.92
2022-12-17T02:39:11.060Z,97.65
2022-12-17T02:42:11.674Z,97.29
2022-12-17T02:44:59.136Z,97.87
2022-12-17T02:47:44.699Z,98.19
2022-12-17T02:50:31.191Z,98.63
2022-12-17T02:53:20.755Z,98.27
2022-12-17T02:56:06.057Z,97.63
2022-12-17T02:58:51.201Z,97.91
2022-12-17T03:01:36.828Z,98.22
2022-12-17T03:04:22.712Z,98.75
2022-12-17T03:07:08.652Z,98.99
2022-12-17T03:09:53.839Z,99.06
2022-12-17T03:12:39.153Z,98.59
2022-12-17T03:15:25.480Z,98.21
2022-12-17T03:18:10.988Z,97.86
2022-12-17T03:20:56.298Z,98.16
2022-12-17T03:23:41.953Z,97.72
2022-12-17T03:26:27.343Z,97.75
2022-12-17T03:29:13.220Z,98.24
2022-12-17T03:31:58.574Z,98.24
2022-12-17T03:34:43.788Z,99.11
2022-12-17T03:37:29.372Z,99.50
2022-12-17T03:40:14.757Z,99.51
2022-12-17T03:43:01.046Z,99.45
2022-12-17T03:45:46.362Z,99.18
2022-12-17T03:48:33.878Z,99.60
2022-12-17T03:51:20.338Z,99.94
2022-12-17T03:54:06.795Z,99.19
2022-12-17T03:56:53.258Z,99.70
2022-12-17T03:59:39.033Z,99.96
2022-12-17T04:02:24.471Z,99.48
2022-12-17T04:05:13.821Z,98.47
2022-12-17T04:08:02.018Z,98.31
2022-12-17T04:10:47.249Z,98.03
2022-12-17T04:13:35.984Z,97.39
2022-12-17T04:16:26.178Z,97.57
2022-12-17T04:19:11.439Z,97.61
2022-12-17T04:21:56.667Z,97.47
2022-12-17T04:24:41.865Z,96.90
2022-12-17T04:27:27.028Z,96.54
2022-12-17T04:30:12.316Z,96.26
2022-12-17T04:32:57.487Z,96.57
2022-12-17T04:35:44.052Z,97.04
2022-12-17T04:38:29.447Z,97.19
2022-12-17T04:41:14.722Z,98.58
2022-12-17T04:44:03.165Z,99.74
2022-12-17T04:46:49.476Z,99.89
2022-12-17T04:49:35.290Z,99.58
2022-12-17T04:52:20.518Z,98.54
2022-12-17T04:55:05.748Z,98.02
2022-12-17T04:57:51.796Z,98.15
2022-12-17T05:00:39.411Z,96.60
2022-12-17T05:03:30.298Z,96.69
2022-12-17T05:06:16.182Z,96.79
2022-12-17T05:09:01.664Z,97.26
2022-12-17T05:11:46.841Z,97.15
2022-12-17T05:14:32.189Z,96.82
2022-12-17T05:17:17.424Z,97.68
2022-12-17T05:20:02.674Z,98.30
2022-12-17T05:22:48.361Z,98.33
2022-12-17T05:25:33.928Z,100.00
2022-12-17T05:28:19.295Z,100.00
2022-12-17T05:31:11.741Z,100.00
2022-12-17T05:33:57.653Z,100.00
2022-12-17T05:36:43.490Z,100.00
2022-12-17T05:39:29.953Z,100.00
2022-12-17T05:42:15.207Z,100.00
2022-12-17T05:45:00.377Z,100.00
2022-12-17T05:47:45.845Z,100.00
2022-12-17T05:50:31.102Z,100.00
2022-12-17T05:53:24.415Z,100.00
2022-12-17T05:56:11.120Z,100.00
2022-12-17T05:58:57.716Z,100.00
2022-12-17T06:01:43.179Z,100.00
2022-12-17T06:04:29.736Z,100.00
2022-12-17T06:07:15.072Z,100.00
2022-12-17T06:10:00.347Z,100.00
2022-12-17T06:12:46.174Z,100.00
2022-12-17T06:15:32.373Z,100.00
2022-12-17T06:18:17.827Z,100.00
2022-12-17T06:21:06.210Z,100.00
2022-12-17T06:23:51.261Z,100.00
2022-12-17T06:26:37.465Z,100.00
2022-12-17T06:29:22.751Z,100.00
2022-12-17T06:32:08.318Z,100.00
2022-12-17T06:34:53.703Z,100.00
2022-12-17T06:37:39.159Z,100.00
2022-12-17T06:40:25.420Z,100.00
2022-12-17T06:43:12.786Z,100.00
2022-12-17T06:45:58.442Z,100.00
2022-12-17T06:48:43.957Z,100.00
2022-12-17T06:51:29.622Z,100.00
2022-12-17T06:54:14.907Z,100.00
2022-12-17T06:57:00.219Z,100.00
2022-12-17T06:59:45.457Z,100.00
2022-12-17T07:02:31.304Z,100.00
2022-12-17T07:05:16.666Z,100.00
2022-12-17T07:08:01.872Z,100.00
2022-12-17T07:10:47.394Z,100.00
2022-12-17T07:13:32.814Z,100.00
2022-12-17T07:16:18.291Z,100.00
2022-12-17T07:19:04.046Z,100.00
2022-12-17T07:21:49.402Z,100.00
2022-12-17T07:24:35.126Z,100.00
2022-12-17T07:27:20.349Z,100.00
2022-12-17T07:30:06.022Z,100.00
2022-12-17T07:32:51.173Z,100.00
2022-12-17T07:35:37.888Z,100.00
2022-12-17T07:38:24.259Z,100.00
2022-12-17T07:41:09.460Z,100.00
2022-12-17T07:43:55.164Z,100.00
2022-12-17T07:46:40.615Z,100.00
2022-12-17T07:49:26.466Z,100.00
2022-12-17T07:52:12.888Z,100.00
2022-12-17T07:54:58.397Z,100.00
2022-12-17T07:57:44.460Z,100.00
2022-12-17T08:00:31.227Z,100.00
2022-12-17T08:03:20.084Z,100.00
2022-12-17T08:06:05.561Z,100.00
2022-12-17T08:08:50.947Z,100.00
2022-12-17T08:11:36.259Z,100.00
2022-12-17T08:14:21.849Z,100.00
2022-12-17T08:17:07.123Z,100.00
2022-12-17T08:19:52.486Z,100.00
2022-12-17T08:22:37.826Z,100.00
2022-12-17T08:25:23.801Z,100.00
2022-12-17T08:28:49.133Z,100.00
2022-12-17T08:31:24.141Z,100.00
2022-12-17T08:34:09.565Z,100.00
2022-12-17T08:36:54.855Z,100.00
2022-12-17T08:39:40.487Z,100.00
2022-12-17T08:42:36.457Z,100.00
2022-12-17T08:45:22.558Z,100.00
2022-12-17T08:48:07.550Z,100.00
2022-12-17T08:50:52.834Z,100.00
2022-12-17T08:53:38.325Z,100.00
2022-12-17T08:56:24.809Z,100.00
2022-12-17T08:59:10.135Z,100.00
2022-12-17T09:01:55.373Z,100.00
2022-12-17T09:04:40.822Z,100.00
2022-12-17T09:07:28.260Z,100.00
2022-12-17T09:10:13.517Z,100.00
2022-12-17T09:13:04.245Z,100.00
2022-12-17T09:15:51.682Z,100.00
2022-12-17T09:18:39.610Z,100.00
2022-12-17T09:21:26.554Z,100.00
2022-12-17T09:24:11.844Z,100.00
2022-12-17T09:26:57.117Z,100.00
2022-12-17T09:29:42.481Z,100.00
2022-12-17T09:32:27.749Z,100.00
2022-12-17T09:35:13.093Z,100.00
2022-12-17T09:37:58.363Z,100.00
2022-12-17T09:40:44.077Z,100.00
2022-12-17T09:44:05.164Z,100.00
2022-12-17T09:47:07.245Z,100.00
2022-12-17T09:50:09.652Z,100.00
2022-12-17T09:52:59.865Z,100.00
2022-12-17T09:56:05.800Z,100.00
2022-12-17T09:58:55.803Z,100.00
2022-12-17T10:01:51.271Z,100.00
2022-12-17T10:04:52.446Z,100.00
2022-12-17T10:07:43.589Z,100.00
2022-12-17T10:10:50.162Z,100.00
2022-12-17T10:13:40.286Z,100.00
2022-12-17T10:16:50.994Z,100.00
2022-12-17T10:20:02.668Z,100.00
2022-12-17T10:22:58.566Z,100.00
2022-12-17T10:25:43.960Z,100.00
2022-12-17T10:28:41.263Z,100.00
2022-12-17T10:31:33.662Z,100.00
2022-12-17T10:34:18.875Z,100.00
2022-12-17T10:37:12.491Z,100.00
2022-12-17T10:40:00.382Z,100.00
2022-12-17T10:42:57.218Z,100.00
2022-12-17T10:45:54.260Z,100.00
2022-12-17T10:48:48.706Z,100.00
2022-12-17T10:51:39.101Z,100.00
2022-12-17T10:54:49.105Z,100.00
2022-12-17T10:57:55.730Z,100.00
2022-12-17T11:01:04.355Z,100.00
2022-12-17T11:04:08.925Z,100.00
2022-12-17T11:07:03.865Z,100.00
2022-12-17T11:10:12.642Z,100.00
2022-12-17T11:13:18.435Z,100.00
2022-12-17T11:16:16.490Z,100.00
2022-12-17T11:19:17.607Z,100.00
2022-12-17T11:22:18.765Z,100.00
2022-12-17T11:25:23.785Z,100.00
2022-12-17T11:28:35.829Z,100.00
2022-12-17T11:31:36.760Z,100.00
2022-12-17T11:34:39.586Z,100.00
2022-12-17T11:37:37.018Z,100.00
2022-12-17T11:40:53.314Z,100.00
2022-12-17T11:43:55.093Z,100.00
2022-12-17T11:46:49.413Z,100.00
2022-12-17T11:50:14.902Z,100.00
2022-12-17T11:53:38.716Z,100.00
2022-12-17T11:56:56.964Z,100.00
2022-12-17T11:59:55.152Z,100.00
2022-12-17T12:03:29.037Z,100.00
2022-12-17T12:06:18.701Z,100.00
2022-12-17T12:09:37.997Z,100.00
2022-12-17T12:12:53.966Z,100.00
2022-12-17T12:15:54.262Z,100.00
2022-12-17T12:18:55.104Z,100.00
2022-12-17T12:22:07.535Z,100.00
2022-12-17T12:25:27.013Z,100.00
2022-12-17T12:28:36.856Z,100.00
2022-12-17T12:31:42.328Z,100.00
2022-12-17T12:34:36.082Z,100.00
2022-12-17T12:37:23.768Z,100.00
2022-12-17T12:40:32.301Z,100.00
2022-12-17T12:43:33.055Z,100.00
2022-12-17T12:46:31.909Z,100.00
2022-12-17T12:49:41.902Z,100.00
2022-12-17T12:52:31.497Z,100.00
2022-12-17T12:55:17.828Z,100.00
2022-12-17T12:58:43.100Z,100.00
2022-12-17T13:01:29.346Z,100.00
2022-12-17T13:04:17.583Z,100.00
2022-12-17T13:06:50.715Z,100.00
2022-12-17T13:09:23.385Z,100.00
2022-12-17T13:12:02.266Z,100.00
2022-12-17T13:14:46.128Z,100.00
2022-12-17T13:17:16.314Z,100.00
2022-12-17T13:20:03.471Z,100.00
2022-12-17T13:22:33.624Z,100.00
2022-12-17T13:25:19.118Z,100.00
2022-12-17T13:27:46.742Z,100.00
2022-12-17T13:30:38.212Z,100.00
2022-12-17T13:33:08.209Z,100.00
2022-12-17T13:35:49.685Z,100.00
2022-12-17T13:38:34.104Z,100.00
2022-12-17T13:41:08.139Z,100.00
2022-12-17T13:44:21.445Z,100.00
2022-12-17T13:46:50.730Z,100.00
2022-12-17T13:49:27.012Z,100.00
2022-12-17T13:52:17.675Z,100.00
2022-12-17T13:54:45.114Z,100.00
2022-12-17T13:57:22.930Z,100.00
2022-12-17T13:59:58.911Z,100.00
2022-12-17T14:02:33.674Z,100.00
2022-12-17T14:05:07.936Z,100.00
2022-12-17T14:07:39.187Z,100.00
2022-12-17T14:10:18.318Z,100.00
2022-12-17T14:12:45.457Z,100.00
2022-12-17T14:15:26.082Z,100.00
2022-12-17T14:17:55.026Z,100.00
2022-12-17T14:20:30.149Z,100.00
2022-12-17T14:23:11.454Z,100.00
2022-12-17T14:25:40.553Z,100.00
2022-12-17T14:28:31.669Z,100.00
2022-12-17T14:31:27.041Z,100.00
2022-12-17T14:34:11.850Z,100.00
2022-12-17T14:36:43.944Z,100.00
2022-12-17T14:39:23.339Z,100.00
2022-12-17T14:42:09.738Z,100.00
2022-12-17T14:44:50.435Z,100.00
2022-12-17T14:47:22.192Z,100.00
2022-12-17T14:50:06.542Z,100.00
2022-12-17T14:53:01.507Z,100.00
2022-12-17T14:55:38.290Z,100.00
2022-12-17T14:58:14.121Z,100.00
2022-12-17T15:00:51.735Z,100.00
2022-12-17T15:03:33.152Z,100.00
2022-12-17T15:06:15.414Z,100.00
2022-12-17T15:08:49.131Z,100.00
2022-12-17T15:11:20.306Z,100.00
2022-12-17T15:13:51.407Z,100.00
2022-12-17T15:16:21.484Z,100.00
2022-12-17T15:18:48.396Z,100.00
2022-12-17T15:21:17.177Z,100.00
2022-12-17T15:23:45.831Z,100.00
2022-12-17T15:26:15.110Z,100.00
2022-12-17T15:28:43.601Z,100.00
2022-12-17T15:31:13.578Z,100.00
2022-12-17T15:33:41.778Z,100.00
2022-12-17T15:36:12.839Z,100.00
2022-12-17T15:38:40.256Z,100.00
2022-12-17T15:41:25.898Z,100.00
2022-12-17T15:43:53.107Z,100.00
2022-12-17T15:46:20.064Z,100.00
2022-12-17T15:48:50.525Z,100.00
2022-12-17T15:51:21.161Z,100.00
2022-12-17T15:53:48.674Z,100.00
2022-12-17T15:56:24.911Z,100.00
2022-12-17T15:58:54.219Z,100.00
2022-12-17T16:01:21.317Z,100.00
2022-12-17T16:03:48.477Z,100.00
2022-12-17T16:06:15.510Z,100.00
2022-12-17T16:08:42.396Z,100.00
2022-12-17T16:11:11.532Z,100.00
2022-12-17T16:13:39.138Z,100.00
2022-12-17T16:16:07.806Z,100.00
2022-12-17T16:18:38.522Z,100.00
2022-12-17T16:21:09.076Z,100.00
2022-12-17T16:23:36.679Z,100.00
2022-12-17T16:26:07.225Z,100.00
2022-12-17T16:28:36.133Z,100.00
2022-12-17T16:31:11.442Z,100.00
2022-12-17T16:33:48.207Z,100.00
2022-12-17T16:36:19.290Z,100.00
2022-12-17T16:38:50.114Z,100.00
2022-12-17T16:41:18.349Z,100.00
2022-12-17T16:43:46.405Z,100.00
2022-12-17T16:46:32.249Z,100.00
2022-12-17T16:49:05.924Z,100.00
2022-12-17T16:51:33.220Z,100.00
2022-12-17T16:54:04.778Z,100.00
2022-12-17T16:56:35.160Z,100.00
2022-12-17T16:59:08.211Z,100.00
2022-12-17T17:01:37.284Z,100.00
2022-12-17T17:04:06.703Z,100.00
2022-12-17T17:06:38.459Z,100.00
2022-12-17T17:09:05.906Z,100.00
2022-12-17T17:11:32.994Z,100.00
2022-12-17T17:14:00.142Z,100.00
2022-12-17T17:16:27.536Z,100.00
2022-12-17T17:18:54.855Z,100.00
2022-12-17T17:21:34.275Z,100.00
2022-12-17T17:24:08.428Z,100.00
2022-12-17T17:26:35.628Z,100.00
2022-12-17T17:29:03.906Z,100.00
2022-12-17T17:34:17.897Z,100.00
2022-12-17T17:36:45.027Z,100.00
2022-12-17T17:39:11.978Z,100.00
2022-12-17T17:41:39.045Z,100.00
2022-12-17T17:44:11.658Z,100.00
2022-12-17T17:46:39.350Z,100.00
2022-12-17T17:49:08.245Z,100.00
2022-12-17T17:52:08.455Z,100.00
2022-12-17T17:54:27.974Z,100.00
2022-12-17T17:56:54.886Z,100.00
2022-12-17T17:59:27.861Z,100.00
2022-12-17T18:02:00.447Z,100.00
2022-12-17T18:04:28.728Z,100.00
2022-12-17T18:07:24.322Z,100.00
2022-12-17T18:09:42.859Z,100.00
2022-12-17T18:12:37.815Z,100.00
2022-12-17T18:15:16.452Z,100.00
2022-12-17T18:17:51.384Z,100.00
2022-12-17T18:20:18.925Z,100.00
2022-12-17T18:22:46.802Z,100.00
2022-12-17T18:25:17.686Z,100.00
2022-12-17T18:27:45.008Z,100.00
2022-12-17T18:30:14.325Z,100.00
2022-12-17T18:32:41.277Z,100.00
2022-12-17T18:35:08.914Z,100.00
2022-12-17T18:37:36.359Z,100.00
2022-12-17T18:40:04.942Z,100.00
2022-12-17T18:42:50.819Z,100.00
2022-12-17T18:45:17.843Z,100.00
2022-12-17T18:47:45.095Z,100.00
2022-12-17T18:50:13.272Z,100.00
2022-12-17T18:52:40.174Z,100.00
2022-12-17T18:55:08.618Z,100.00
2022-12-17T18:57:35.532Z,100.00
2022-12-17T19:00:02.698Z,100.00
2022-12-17T19:02:29.681Z,100.00
2022-12-17T19:04:56.667Z,100.00
2022-12-17T19:07:23.534Z,100.00
2022-12-17T19:09:50.498Z,100.00
2022-12-17T19:12:17.373Z,100.00
2022-12-17T19:14:44.438Z,100.00
2022-12-17T19:17:12.447Z,100.00
2022-12-17T19:19:39.466Z,100.00
2022-12-17T19:22:06.806Z,100.00
2022-12-17T19:24:33.826Z,100.00
2022-12-17T19:27:00.742Z,100.00
2022-12-17T19:29:27.648Z,100.00
2022-12-17T19:31:54.597Z,100.00
2022-12-17T19:34:21.812Z,100.00
2022-12-17T19:36:48.801Z,100.00
2022-12-17T19:39:19.152Z,100.00
2022-12-17T19:41:46.424Z,100.00
2022-12-17T19:44:17.282Z,100.00
2022-12-17T19:46:44.782Z,100.00
2022-12-17T19:49:14.217Z,100.00
2022-12-17T19:51:44.078Z,100.00
2022-12-17T19:54:13.926Z,100.00
2022-12-17T19:56:41.984Z,100.00
2022-12-17T19:59:10.805Z,100.00
2022-12-17T20:01:42.967Z,100.00
2022-12-17T20:04:13.404Z,100.00
2022-12-17T20:06:40.273Z,100.00
2022-12-17T20:09:07.597Z,100.00
2022-12-17T20:11:35.271Z,100.00
2022-12-17T20:14:11.004Z,100.00
2022-12-17T20:16:48.171Z,100.00
2022-12-17T20:19:20.423Z,100.00
2022-12-17T20:21:47.906Z,100.00
2022-12-17T20:24:16.534Z,100.00
2022-12-17T20:26:44.770Z,100.00
2022-12-17T20:29:12.613Z,100.00
2022-12-17T20:31:39.864Z,100.00
2022-12-17T20:34:09.671Z,100.00
2022-12-17T20:36:36.810Z,100.00
2022-12-17T20:39:04.454Z,100.00
2022-12-17T20:41:32.606Z,100.00
2022-12-17T20:44:05.080Z,100.00
2022-12-17T20:46:32.450Z,100.00
2022-12-17T20:49:01.073Z,100.00
2022-12-17T20:51:29.355Z,100.00
2022-12-17T20:53:58.962Z,100.00
2022-12-17T20:56:29.466Z,100.00
2022-12-17T20:59:00.249Z,100.00
2022-12-17T21:01:29.901Z,100.00
2022-12-17T21:03:57.945Z,100.00
2022-12-17T21:06:32.500Z,100.00
2022-12-17T21:08:59.808Z,100.00
2022-12-17T21:11:29.999Z,100.00
2022-12-17T21:13:57.386Z,100.00
2022-12-17T21:16:29.611Z,100.00
2022-12-17T21:18:58.723Z,100.00
2022-12-17T21:21:29.346Z,100.00
2022-12-17T21:23:57.572Z,100.00
2022-12-17T21:26:32.012Z,100.00
2022-12-17T21:29:00.374Z,100.00
2022-12-17T21:31:35.512Z,100.00
2022-12-17T21:34:04.950Z,100.00
2022-12-17T21:36:34.553Z,100.00
2022-12-17T21:39:02.895Z,100.00
2022-12-17T21:41:39.340Z,100.00
2022-12-17T21:44:15.365Z,100.00
2022-12-17T21:46:43.642Z,100.00
2022-12-17T21:49:13.790Z,100.00
2022-12-17T21:51:40.904Z,100.00
2022-12-17T21:54:08.598Z,100.00
2022-12-17T21:56:36.439Z,100.00
2022-12-17T21:59:03.623Z,100.00
2022-12-17T22:01:33.879Z,100.00
2022-12-17T22:04:04.294Z,100.00
2022-12-17T22:06:36.047Z,100.00
2022-12-17T22:09:15.169Z,100.00
2022-12-17T22:12:15.162Z,100.00
2022-12-17T22:14:42.128Z,100.00
2022-12-17T22:17:09.036Z,100.00
2022-12-17T22:19:36.031Z,100.00
2022-12-17T22:22:03.043Z,100.00
2022-12-17T22:24:36.206Z,100.00
2022-12-17T22:27:04.049Z,100.00
2022-12-17T22:29:52.168Z,100.00
2022-12-17T22:32:37.338Z,100.00
2022-12-17T22:36:24.402Z,100.00
2022-12-17T22:40:21.353Z,100.00
2022-12-17T22:44:30.407Z,100.00
2022-12-17T22:44:31.830Z,100.00
2022-12-17T22:46:17.338Z,100.00
2022-12-17T22:48:44.587Z,100.00
2022-12-17T22:51:15.152Z,100.00
2022-12-17T22:53:44.998Z,100.00
2022-12-17T22:56:22.525Z,100.00
2022-12-17T22:58:59.394Z,100.00
2022-12-17T23:01:26.947Z,100.00
2022-12-17T23:03:59.901Z,100.00
2022-12-17T23:06:27.749Z,100.00
2022-12-17T23:08:55.877Z,100.00
2022-12-17T23:11:26.026Z,100.00
2022-12-17T23:13:54.726Z,100.00
2022-12-17T23:16:22.120Z,100.00
2022-12-17T23:18:51.309Z,100.00
2022-12-17T23:21:22.483Z,100.00
2022-12-17T23:23:50.480Z,100.00
2022-12-17T23:26:27.302Z,100.00
2022-12-17T23:28:59.954Z,100.00
2022-12-17T23:31:32.138Z,100.00
2022-12-17T23:33:59.224Z,100.00
2022-12-17T23:36:26.471Z,100.00
2022-12-17T23:38:56.135Z,100.00
2022-12-17T23:41:29.674Z,100.00
2022-12-17T23:43:57.620Z,100.00
2022-12-17T23:46:26.899Z,100.00
2022-12-17T23:48:55.167Z,100.00
2022-12-17T23:51:24.160Z,100.00
2022-12-17T23:53:51.196Z,100.00
2022-12-17T23:56:25.170Z,100.00
2022-12-17T23:58:58.697Z,100.00
